createdAt,value
2022-10-24T00:01:32.518Z,14.00
2022-10-24T00:05:34.392Z,14.83
2022-10-24T00:09:36.521Z,15.77
2022-10-24T00:13:38.796Z,15.53
2022-10-24T00:17:40.651Z,15.37
2022-10-24T00:21:42.594Z,16.00
2022-10-24T00:25:44.465Z,16.07
2022-10-24T00:29:46.351Z,15.67
2022-10-24T00:33:48.324Z,16.50
2022-10-24T00:37:50.166Z,16.27
2022-10-24T00:41:54.448Z,17.07
2022-10-24T00:46:01.200Z,15.53
2022-10-24T00:50:12.993Z,15.37
2022-10-24T00:54:16.291Z,16.73
2022-10-24T00:58:18.460Z,15.67
2022-10-24T01:02:21.835Z,15.57
2022-10-24T01:06:50.238Z,15.27
2022-10-24T01:11:01.705Z,15.53
2022-10-24T01:15:23.538Z,14.80
2022-10-24T01:19:51.114Z,14.60
2022-10-24T01:24:29.660Z,15.07
2022-10-24T01:28:45.942Z,14.13
2022-10-24T01:32:50.048Z,14.27
2022-10-24T01:37:06.448Z,14.13
2022-10-24T01:41:10.363Z,13.13
2022-10-24T01:45:15.739Z,13.13
2022-10-24T01:49:19.999Z,13.63
2022-10-24T01:53:24.830Z,13.70
2022-10-24T01:57:28.885Z,13.50
2022-10-24T02:01:37.419Z,13.17
2022-10-24T02:05:43.740Z,14.40
2022-10-24T02:09:53.371Z,13.73
2022-10-24T02:14:27.391Z,13.63
2022-10-24T02:18:29.866Z,14.27
2022-10-24T02:23:01.394Z,14.40
2022-10-24T02:27:07.306Z,15.57
2022-10-24T02:31:17.580Z,14.90
2022-10-24T02:35:23.745Z,14.67
2022-10-24T02:39:28.159Z,13.77
2022-10-24T02:43:33.730Z,15.17
2022-10-24T02:47:35.674Z,15.13
2022-10-24T02:51:40.065Z,15.23
2022-10-24T02:55:44.167Z,15.13
2022-10-24T02:59:46.100Z,14.63
2022-10-24T03:03:48.095Z,15.20
2022-10-24T03:07:50.044Z,14.70
2022-10-24T03:11:51.934Z,14.10
2022-10-24T03:15:54.854Z,13.50
2022-10-24T03:19:56.679Z,13.93
2022-10-24T03:24:01.585Z,13.50
2022-10-24T03:28:03.599Z,14.20
2022-10-24T03:32:06.480Z,13.47
2022-10-24T03:36:08.773Z,13.73
2022-10-24T03:40:11.249Z,13.70
2022-10-24T03:44:13.285Z,14.63
2022-10-24T03:48:15.443Z,13.90
2022-10-24T03:52:17.291Z,14.37
2022-10-24T03:56:21.970Z,13.50
2022-10-24T04:00:23.847Z,14.10
2022-10-24T04:04:25.969Z,13.67
2022-10-24T04:08:27.824Z,14.63
2022-10-24T04:12:29.629Z,14.63
2022-10-24T04:16:34.194Z,14.87
2022-10-24T04:20:36.184Z,14.90
2022-10-24T04:24:39.430Z,14.50
2022-10-24T04:28:41.474Z,14.77
2022-10-24T04:32:43.609Z,14.80
2022-10-24T04:36:45.760Z,15.37
2022-10-24T04:40:52.882Z,16.17
2022-10-24T04:44:55.073Z,16.13
2022-10-24T04:48:56.957Z,14.60
2022-10-24T04:52:58.804Z,15.13
2022-10-24T04:57:10.842Z,15.50
2022-10-24T05:01:12.784Z,15.10
2022-10-24T05:05:15.191Z,13.97
2022-10-24T05:09:17.224Z,13.83
2022-10-24T05:13:19.044Z,14.60
2022-10-24T05:17:20.906Z,13.80
2022-10-24T05:21:22.797Z,12.77
2022-10-24T05:25:25.165Z,6.90
2022-10-24T05:29:27.112Z,7.07
2022-10-24T05:33:29.413Z,7.53
2022-10-24T05:41:33.570Z,11.47
2022-10-24T05:45:35.865Z,11.60
2022-10-24T05:49:38.135Z,10.60
2022-10-24T05:53:40.158Z,11.33
2022-10-24T05:57:42.567Z,12.47
2022-10-24T06:01:45.179Z,11.17
2022-10-24T06:05:47.220Z,11.00
2022-10-24T06:09:49.035Z,11.03
2022-10-24T06:13:51.001Z,12.03
2022-10-24T06:17:52.908Z,10.63
2022-10-24T06:21:54.780Z,11.53
2022-10-24T06:25:56.802Z,10.67
2022-10-24T06:29:58.940Z,11.37
2022-10-24T06:34:10.699Z,11.37
2022-10-24T06:38:12.989Z,11.07
2022-10-24T06:42:14.937Z,10.90
2022-10-24T06:46:17.711Z,11.50
2022-10-24T06:50:19.688Z,10.50
2022-10-24T06:55:00.471Z,10.80
2022-10-24T06:59:04.465Z,10.17
2022-10-24T07:03:06.490Z,10.60
2022-10-24T07:07:19.391Z,11.40
2022-10-24T07:11:21.574Z,10.50
2022-10-24T07:15:23.436Z,10.57
2022-10-24T07:19:26.511Z,10.60
2022-10-24T07:23:31.757Z,10.57
2022-10-24T07:27:34.060Z,10.07
2022-10-24T07:31:36.716Z,10.23
2022-10-24T07:35:43.044Z,9.60
2022-10-24T07:39:46.773Z,10.17
2022-10-24T07:44:23.523Z,9.00
2022-10-24T07:48:25.597Z,9.27
2022-10-24T07:52:54.739Z,8.63
2022-10-24T07:57:11.840Z,8.73
2022-10-24T08:13:20.090Z,8.27
2022-10-24T08:17:23.484Z,8.90
2022-10-24T08:21:28.593Z,8.33
2022-10-24T08:25:30.490Z,8.40
2022-10-24T08:29:42.776Z,8.53
2022-10-24T08:33:45.943Z,8.20
2022-10-24T08:37:47.998Z,7.80
2022-10-24T08:42:00.304Z,8.00
2022-10-24T08:46:25.580Z,8.67
2022-10-24T08:50:33.589Z,9.03
2022-10-24T08:54:56.538Z,7.60
2022-10-24T08:58:58.526Z,7.87
2022-10-24T09:03:44.045Z,7.93
2022-10-24T09:07:49.147Z,7.57
2022-10-24T09:12:02.697Z,7.50
2022-10-24T09:16:33.274Z,7.63
2022-10-24T09:20:35.467Z,7.63
2022-10-24T09:24:45.617Z,7.90
2022-10-24T09:28:48.106Z,7.67
2022-10-24T09:32:50.236Z,7.17
2022-10-24T09:37:59.003Z,7.10
2022-10-24T09:42:08.355Z,7.27
2022-10-24T09:52:27.923Z,6.50
2022-10-24T10:07:54.725Z,6.23
2022-10-24T10:12:03.606Z,6.67
2022-10-24T10:16:15.191Z,6.70
2022-10-24T10:20:41.653Z,6.53
2022-10-24T10:24:44.230Z,6.20
2022-10-24T10:29:18.284Z,7.23
2022-10-24T10:33:30.154Z,6.97
2022-10-24T10:37:35.887Z,6.70
2022-10-24T11:21:35.525Z,1.80
2022-10-24T11:25:54.610Z,1.40
2022-10-24T11:30:06.927Z,1.50
2022-10-24T11:34:21.977Z,2.20
2022-10-24T11:38:24.179Z,1.90
2022-10-24T11:43:06.184Z,1.60
2022-10-24T11:47:24.487Z,2.63
2022-10-24T11:51:45.872Z,1.97
2022-10-24T11:56:12.179Z,2.10
2022-10-24T12:00:26.669Z,1.63
2022-10-24T12:05:19.382Z,1.20
2022-10-24T12:09:36.927Z,1.37
2022-10-24T12:13:47.577Z,0.90
2022-10-24T12:24:29.680Z,1.00
2022-10-24T12:47:30.828Z,0.60
2022-10-24T12:56:43.544Z,0.77
2022-10-24T13:01:10.652Z,0.77
2022-10-24T13:05:52.878Z,0.47
2022-10-24T13:10:26.081Z,0.50
2022-10-24T13:14:59.931Z,0.70
2022-10-24T13:19:19.923Z,1.07
2022-10-24T13:23:27.038Z,1.03
2022-10-24T13:27:31.361Z,0.83
2022-10-24T13:31:33.240Z,0.70
2022-10-24T13:35:35.573Z,0.90
2022-10-24T13:39:42.425Z,0.70
2022-10-24T13:43:48.444Z,0.70
2022-10-24T13:48:01.107Z,0.80
2022-10-24T13:52:37.186Z,0.70
2022-10-24T13:56:40.277Z,1.00
2022-10-24T14:00:58.737Z,0.50
2022-10-24T14:06:02.002Z,0.50
2022-10-24T14:10:13.534Z,0.50
2022-10-24T14:14:31.713Z,0.57
2022-10-24T14:18:37.159Z,0.50
2022-10-24T14:22:40.538Z,0.30
2022-10-24T14:26:42.769Z,0.90
2022-10-24T14:31:20.680Z,0.60
2022-10-24T14:36:11.326Z,0.60
2022-10-24T14:40:17.190Z,0.43
2022-10-24T14:44:20.291Z,0.70
2022-10-24T14:48:25.049Z,0.80
2022-10-24T14:57:17.551Z,0.80
2022-10-24T15:01:19.863Z,0.73
2022-10-24T15:05:24.589Z,0.60
2022-10-24T15:09:26.817Z,0.80
2022-10-24T15:13:34.694Z,0.40
2022-10-24T15:17:44.385Z,0.60
2022-10-24T15:21:46.504Z,0.57
2022-10-24T15:26:10.454Z,0.87
2022-10-24T15:30:18.137Z,0.63
2022-10-24T15:34:22.400Z,0.50
2022-10-24T15:38:24.588Z,0.60
2022-10-24T15:43:44.050Z,0.83
2022-10-24T16:31:48.546Z,1.40
2022-10-24T16:45:23.532Z,1.50
2022-10-24T16:49:28.642Z,1.80
2022-10-24T16:55:08.060Z,1.60
2022-10-24T17:42:24.548Z,2.90
2022-10-24T17:46:31.579Z,2.90
2022-10-24T17:51:21.200Z,2.67
2022-10-24T17:55:45.571Z,3.30
2022-10-24T18:20:39.922Z,4.20
2022-10-24T18:24:50.226Z,4.40
2022-10-24T18:52:32.606Z,4.03
2022-10-24T19:20:26.439Z,3.50
2022-10-24T19:32:16.080Z,3.40
2022-10-24T20:00:14.962Z,3.27
2022-10-24T21:10:40.164Z,3.20
2022-10-24T21:14:54.097Z,3.07
2022-10-24T21:19:15.569Z,3.10
2022-10-24T21:23:43.721Z,2.93
2022-10-24T21:27:48.976Z,2.93
2022-10-24T21:31:57.649Z,3.50
2022-10-24T21:36:35.258Z,2.93
2022-10-24T21:40:37.201Z,2.60
2022-10-24T21:45:21.006Z,2.80
2022-10-24T21:49:26.000Z,2.20
2022-10-24T21:53:29.394Z,2.67
2022-10-24T21:57:31.305Z,2.37
2022-10-24T22:01:38.436Z,2.43
2022-10-24T22:05:40.549Z,2.10
2022-10-24T22:09:42.607Z,2.50
2022-10-24T22:13:49.673Z,2.00
2022-10-24T22:17:51.565Z,2.07
2022-10-24T22:21:56.258Z,2.10
2022-10-24T22:26:30.376Z,2.50
2022-10-24T22:31:00.678Z,2.40
2022-10-24T22:35:23.954Z,2.40
2022-10-24T22:39:26.785Z,2.90
2022-10-24T22:43:34.297Z,2.70
2022-10-24T22:48:26.038Z,2.80
2022-10-24T22:52:28.674Z,2.47
2022-10-24T22:56:33.653Z,3.07
2022-10-24T23:00:37.381Z,2.50
2022-10-24T23:04:52.628Z,2.30
2022-10-24T23:19:36.636Z,3.10
2022-10-24T23:23:39.106Z,2.43
2022-10-24T23:27:45.985Z,2.70
2022-10-24T23:31:48.432Z,2.57
2022-10-24T23:36:00.397Z,2.50
2022-10-24T23:40:37.178Z,2.40
2022-10-24T23:44:39.521Z,2.20
2022-10-24T23:49:03.026Z,2.30
2022-10-24T23:53:27.654Z,2.03
2022-10-24T23:57:29.988Z,2.30
